Time;durP1;ratioP1;P1;durP2;ratioP2;P2;SDS_P1;SDS_P2;PMS_P1;PMS_P2;Temp;Humidity;BMP_temperature;BMP_pressure;BME280_temperature;BME280_humidity;BME280_pressure;Samples;Min_cycle;Max_cycle;Signal;HPM_P1;HPM_P2
2022/11/22 00:02:11;;;;;;;8.93;2.80;;;7.50;99.90;;;;;;4959380;28;20163;-62
2022/11/22 00:04:36;;;;;;;6.72;2.85;;;7.50;99.90;;;;;;4964683;28;20659;-63
2022/11/22 00:07:02;;;;;;;9.55;2.50;;;7.50;99.90;;;;;;4964197;28;20035;-61
2022/11/22 00:09:27;;;;;;;6.30;2.63;;;7.50;99.90;;;;;;4953290;28;20509;-62
2022/11/22 00:11:53;;;;;;;10.50;3.15;;;7.40;99.90;;;;;;4964424;28;20701;-62
2022/11/22 00:14:19;;;;;;;9.50;3.20;;;7.50;99.90;;;;;;4969956;28;20049;-62
2022/11/22 00:16:44;;;;;;;13.63;3.13;;;7.50;99.90;;;;;;4954031;28;20035;-63
2022/11/22 00:19:10;;;;;;;8.93;2.92;;;7.50;99.90;;;;;;4960244;28;20031;-62
2022/11/22 00:21:35;;;;;;;9.50;3.17;;;7.40;99.90;;;;;;4967144;28;20030;-62
2022/11/22 00:24:01;;;;;;;8.00;2.67;;;7.40;99.90;;;;;;4964393;28;20082;-61
2022/11/22 00:26:26;;;;;;;10.10;2.90;;;7.40;99.90;;;;;;4965723;28;20043;-62
2022/11/22 00:28:52;;;;;;;10.95;2.88;;;7.30;99.90;;;;;;4962766;28;20046;-62
2022/11/22 00:31:17;;;;;;;7.63;2.67;;;7.40;99.90;;;;;;4963146;28;20035;-63
2022/11/22 00:33:43;;;;;;;10.23;2.58;;;7.20;99.90;;;;;;4967150;28;20039;-63
2022/11/22 00:36:09;;;;;;;10.60;2.90;;;7.30;99.90;;;;;;4951016;28;20055;-62
2022/11/22 00:38:34;;;;;;;10.40;2.60;;;7.30;99.90;;;;;;4961187;28;20032;-62
2022/11/22 00:41:00;;;;;;;9.30;2.75;;;7.30;99.90;;;;;;4962221;28;20043;-62
2022/11/22 00:43:25;;;;;;;8.40;3.00;;;7.40;99.90;;;;;;4966122;28;20089;-62
2022/11/22 00:45:51;;;;;;;7.20;2.60;;;7.50;99.90;;;;;;4960655;28;20530;-62
2022/11/22 00:48:17;;;;;;;12.00;3.00;;;7.50;99.90;;;;;;4963632;28;20067;-62
2022/11/22 00:50:42;;;;;;;10.05;2.78;;;7.50;99.90;;;;;;4967339;28;20039;-62
2022/11/22 00:53:08;;;;;;;7.85;2.70;;;7.40;99.90;;;;;;4969491;28;20027;-62
2022/11/22 00:55:34;;;;;;;5.75;2.55;;;7.30;99.90;;;;;;4964104;28;20110;-62
2022/11/22 00:57:59;;;;;;;6.30;2.65;;;7.20;99.90;;;;;;4968945;28;20394;-62
2022/11/22 01:00:25;;;;;;;7.32;2.80;;;7.20;99.90;;;;;;4962154;28;20028;-62
2022/11/22 01:02:50;;;;;;;5.57;2.40;;;7.20;99.90;;;;;;4967868;28;20067;-62
2022/11/22 01:05:16;;;;;;;5.07;2.40;;;7.40;99.90;;;;;;4968501;28;20050;-62
2022/11/22 01:07:43;;;;;;;10.57;3.08;;;7.50;99.90;;;;;;4970312;28;20489;-61
2022/11/22 01:10:09;;;;;;;10.73;2.88;;;7.60;99.90;;;;;;4956663;28;20081;-61
2022/11/22 01:12:35;;;;;;;10.07;2.85;;;7.50;99.90;;;;;;4969026;28;20112;-61
2022/11/22 01:15:01;;;;;;;6.30;2.58;;;7.50;99.90;;;;;;4963259;28;21011;-61
2022/11/22 01:17:27;;;;;;;7.95;2.78;;;7.60;99.90;;;;;;4955655;28;20050;-61
2022/11/22 01:19:53;;;;;;;7.53;3.00;;;7.50;99.90;;;;;;4968672;28;20027;-61
2022/11/22 01:22:18;;;;;;;6.68;2.85;;;7.40;99.90;;;;;;4967495;28;20027;-61
2022/11/22 01:24:44;;;;;;;8.85;2.60;;;7.60;99.90;;;;;;4967630;28;20035;-61
2022/11/22 01:27:09;;;;;;;5.72;2.38;;;7.50;99.90;;;;;;4962835;28;20039;-61
2022/11/22 01:29:35;;;;;;;9.00;3.13;;;7.60;99.90;;;;;;4963756;28;20034;-61
2022/11/22 01:32:00;;;;;;;5.55;2.60;;;7.70;99.90;;;;;;4964167;28;20035;-61
2022/11/22 01:34:26;;;;;;;10.05;2.83;;;7.70;99.90;;;;;;4966088;28;20448;-61
2022/11/22 01:36:51;;;;;;;6.00;2.70;;;7.60;99.90;;;;;;4969095;28;20434;-62
2022/11/22 01:39:17;;;;;;;8.70;2.70;;;7.60;99.90;;;;;;4966733;28;20069;-61
2022/11/22 01:41:43;;;;;;;8.15;2.83;;;7.50;99.90;;;;;;4983203;28;20035;-61
2022/11/22 01:44:18;;;;;;;10.45;3.00;;;7.50;99.90;;;;;;4964689;28;20031;-60
2022/11/22 01:46:46;;;;;;;7.68;2.78;;;7.50;99.90;;;;;;4958833;28;20039;-61
2022/11/22 01:49:34;;;;;;;5.78;2.60;;;7.50;99.90;;;;;;4960635;28;20505;-61
2022/11/22 01:52:06;;;;;;;6.38;2.65;;;7.50;99.90;;;;;;4964276;28;20038;-61
2022/11/22 01:54:34;;;;;;;7.60;3.05;;;7.60;99.90;;;;;;4966733;28;20101;-61
2022/11/22 01:57:07;;;;;;;9.90;3.00;;;7.60;99.90;;;;;;4968646;28;20038;-61
2022/11/22 01:59:37;;;;;;;3.95;1.92;;;7.50;99.90;;;;;;4966729;28;20066;-60
2022/11/22 02:02:04;;;;;;;5.75;2.70;;;7.50;99.90;;;;;;4961267;28;20086;-61
2022/11/22 02:04:33;;;;;;;6.25;2.50;;;7.60;99.90;;;;;;4962460;28;20549;-62
2022/11/22 02:07:24;;;;;;;10.32;2.80;;;7.50;99.90;;;;;;4967800;28;20271;-62
2022/11/22 02:09:51;;;;;;;8.18;2.80;;;7.30;99.90;;;;;;4960097;28;20549;-61
2022/11/22 02:12:19;;;;;;;8.63;2.65;;;7.20;99.90;;;;;;4959108;28;20089;-61
2022/11/22 02:14:46;;;;;;;4.68;2.20;;;7.30;99.90;;;;;;4966321;28;20262;-61
2022/11/22 02:17:12;;;;;;;5.05;2.30;;;7.10;99.90;;;;;;4958929;28;20529;-62
2022/11/22 02:19:46;;;;;;;11.02;2.88;;;7.10;99.90;;;;;;4954007;28;20030;-62
2022/11/22 02:22:22;;;;;;;10.93;2.60;;;7.10;99.90;;;;;;4952196;28;20031;-62
2022/11/22 02:24:58;;;;;;;5.97;2.40;;;7.00;99.90;;;;;;4956978;28;20035;-62
2022/11/22 02:27:24;;;;;;;8.65;2.50;;;6.90;99.90;;;;;;4951189;28;20043;-62
2022/11/22 02:29:50;;;;;;;8.20;2.90;;;6.90;99.90;;;;;;4968050;28;20145;-62
2022/11/22 02:32:15;;;;;;;7.15;2.13;;;6.80;99.90;;;;;;4964557;28;20136;-62
2022/11/22 02:34:47;;;;;;;10.15;2.83;;;6.70;99.90;;;;;;4953025;28;20145;-62
2022/11/22 02:37:16;;;;;;;8.55;2.67;;;6.60;99.90;;;;;;4962997;28;20142;-61
2022/11/22 02:39:44;;;;;;;7.03;2.47;;;6.50;99.90;;;;;;4959577;28;20099;-62
2022/11/22 02:42:10;;;;;;;5.40;2.05;;;6.60;99.90;;;;;;4948616;28;20495;-62
2022/11/22 02:44:37;;;;;;;11.80;2.88;;;6.70;99.90;;;;;;4957294;28;20209;-62
2022/11/22 02:47:03;;;;;;;6.32;2.28;;;6.80;99.90;;;;;;4956822;28;20387;-61
2022/11/22 02:49:28;;;;;;;8.48;2.70;;;6.80;99.90;;;;;;4967639;28;20041;-62
2022/11/22 02:51:54;;;;;;;10.35;2.42;;;6.70;99.90;;;;;;4954137;28;20118;-61
2022/11/22 02:54:20;;;;;;;10.20;2.20;;;6.60;99.90;;;;;;4958815;28;20374;-61
2022/11/22 02:56:46;;;;;;;9.20;2.10;;;6.60;99.90;;;;;;4982901;28;20514;-61
2022/11/22 02:59:11;;;;;;;8.73;1.73;;;6.50;99.90;;;;;;4954015;28;20521;-62
2022/11/22 03:01:37;;;;;;;11.85;2.90;;;6.50;99.90;;;;;;4960601;28;20054;-61
2022/11/22 03:04:03;;;;;;;10.23;2.47;;;6.40;99.90;;;;;;4959745;28;20034;-61
2022/11/22 03:06:28;;;;;;;12.23;2.63;;;6.50;99.90;;;;;;4971040;28;20506;-62
2022/11/22 03:08:54;;;;;;;13.73;2.80;;;6.60;99.90;;;;;;4963674;28;20038;-62
2022/11/22 03:11:19;;;;;;;10.90;2.40;;;6.50;99.90;;;;;;4958031;28;20038;-62
2022/11/22 03:13:45;;;;;;;12.23;2.53;;;6.50;99.90;;;;;;4961399;28;20047;-61
2022/11/22 03:16:10;;;;;;;9.43;2.65;;;6.50;99.90;;;;;;4952216;28;20089;-62
2022/11/22 03:18:36;;;;;;;12.82;2.63;;;6.40;99.90;;;;;;4946217;28;20039;-61
2022/11/22 03:21:07;;;;;;;13.02;2.20;;;6.60;99.90;;;;;;4955233;28;20041;-62
2022/11/22 03:23:33;;;;;;;9.30;2.05;;;6.50;99.90;;;;;;4966689;28;20069;-62
2022/11/22 03:26:05;;;;;;;10.80;2.50;;;6.60;99.90;;;;;;4957665;28;20460;-62
2022/11/22 03:28:30;;;;;;;14.90;3.25;;;6.70;99.90;;;;;;4955544;28;20554;-61
2022/11/22 03:30:56;;;;;;;12.20;2.55;;;6.60;99.90;;;;;;4957740;28;20150;-61
2022/11/22 03:33:22;;;;;;;11.32;2.40;;;6.60;99.90;;;;;;4956948;28;20046;-62
2022/11/22 03:35:47;;;;;;;10.95;2.22;;;6.80;99.90;;;;;;4960187;28;20038;-62
2022/11/22 03:38:13;;;;;;;12.07;2.33;;;6.70;99.90;;;;;;4961926;28;20042;-61
2022/11/22 03:40:39;;;;;;;15.00;2.40;;;6.50;99.90;;;;;;4956062;28;20042;-61
2022/11/22 03:43:04;;;;;;;16.25;2.50;;;6.50;99.90;;;;;;4974891;28;20086;-62
2022/11/22 03:45:30;;;;;;;15.93;2.67;;;6.40;99.90;;;;;;4957076;28;20514;-62
2022/11/22 03:47:56;;;;;;;13.38;2.63;;;6.40;99.90;;;;;;4951344;28;20522;-61
2022/11/22 03:50:22;;;;;;;14.95;2.50;;;6.40;99.90;;;;;;4959407;28;20097;-61
2022/11/22 03:52:47;;;;;;;11.50;2.63;;;6.50;99.90;;;;;;4961859;28;20046;-60
2022/11/22 03:55:13;;;;;;;15.85;2.75;;;6.50;99.90;;;;;;4951404;28;20032;-60
2022/11/22 03:57:39;;;;;;;16.42;2.65;;;6.50;99.90;;;;;;4960597;28;20451;-61
2022/11/22 04:00:05;;;;;;;16.35;2.60;;;6.40;99.90;;;;;;4960929;28;20050;-61
2022/11/22 04:02:31;;;;;;;12.90;2.70;;;6.30;99.90;;;;;;4964910;28;20062;-61
2022/11/22 04:04:56;;;;;;;14.77;2.70;;;6.20;99.90;;;;;;4973467;28;20039;-60
2022/11/22 04:07:22;;;;;;;11.23;2.80;;;6.10;99.90;;;;;;4959254;28;20031;-61
2022/11/22 04:09:47;;;;;;;14.02;2.38;;;6.10;99.90;;;;;;4954660;28;20147;-61
2022/11/22 04:12:13;;;;;;;12.40;2.42;;;6.00;99.90;;;;;;4957753;28;20506;-61
2022/11/22 04:23:21;;;;;;;15.30;3.30;;;6.10;99.90;;;;;;4954348;28;20442;-60
2022/11/22 04:25:49;;;;;;;19.00;2.90;;;6.00;99.90;;;;;;4966790;28;20778;-60
2022/11/22 04:28:19;;;;;;;14.52;2.78;;;6.00;99.90;;;;;;4959057;28;20097;-61
2022/11/22 04:33:43;;;;;;;13.13;2.53;;;6.00;99.90;;;;;;4931652;28;20081;-61
2022/11/22 04:36:08;;;;;;;13.82;2.92;;;6.00;99.90;;;;;;4964585;28;20486;-61
2022/11/22 04:38:34;;;;;;;14.98;2.78;;;5.90;99.90;;;;;;4972461;28;20039;-61
2022/11/22 04:41:00;;;;;;;15.02;2.65;;;6.00;99.90;;;;;;4951551;28;20035;-60
2022/11/22 04:46:14;;;;;;;16.38;3.05;;;5.90;99.90;;;;;;4967020;28;20046;-62
2022/11/22 04:48:40;;;;;;;16.23;2.58;;;5.90;99.90;;;;;;4965431;28;20126;-61
2022/11/22 04:53:51;;;;;;;14.48;3.15;;;5.90;99.90;;;;;;4966480;28;20105;-61
2022/11/22 04:56:17;;;;;;;15.27;2.70;;;5.90;99.90;;;;;;4955734;28;20038;-61
2022/11/22 04:58:43;;;;;;;12.70;2.78;;;5.80;99.90;;;;;;4953791;28;20078;-61
2022/11/22 05:01:09;;;;;;;12.10;2.53;;;6.00;99.90;;;;;;4965189;28;20063;-61
2022/11/22 05:03:35;;;;;;;13.73;2.58;;;6.10;99.90;;;;;;4955448;28;20069;-61
2022/11/22 05:06:02;;;;;;;11.40;2.58;;;6.10;99.90;;;;;;4965315;28;20505;-61
2022/11/22 05:08:28;;;;;;;11.07;2.42;;;6.10;99.90;;;;;;4963193;28;20062;-61
2022/11/22 05:10:57;;;;;;;16.38;2.70;;;6.20;99.90;;;;;;4961539;28;20051;-61
2022/11/22 05:13:34;;;;;;;13.38;2.78;;;6.20;99.90;;;;;;4956357;28;20090;-61
2022/11/22 05:16:01;;;;;;;13.07;2.80;;;6.10;99.90;;;;;;4956624;28;20439;-61
2022/11/22 05:18:27;;;;;;;15.52;2.90;;;6.10;99.90;;;;;;4954256;28;20031;-61
2022/11/22 05:20:54;;;;;;;13.80;3.17;;;6.00;99.90;;;;;;4966625;28;21149;-61
2022/11/22 05:26:06;;;;;;;13.82;2.45;;;6.00;99.90;;;;;;4957832;28;20089;-61
2022/11/22 05:28:33;;;;;;;17.42;2.60;;;5.80;99.90;;;;;;4950017;28;20046;-61
2022/11/22 05:31:09;;;;;;;9.88;2.28;;;5.80;99.90;;;;;;4968612;28;20039;-61
2022/11/22 05:33:36;;;;;;;15.07;2.55;;;5.80;99.90;;;;;;4964821;28;20035;-61
2022/11/22 05:36:02;;;;;;;16.17;3.38;;;5.70;99.90;;;;;;4963174;28;20043;-61
2022/11/22 05:38:27;;;;;;;10.00;2.80;;;5.60;99.90;;;;;;4979170;28;20062;-61
2022/11/22 05:40:53;;;;;;;16.58;2.85;;;5.70;99.90;;;;;;4960733;28;20082;-60
2022/11/22 05:43:19;;;;;;;15.02;2.28;;;5.60;99.90;;;;;;4959653;28;20391;-61
2022/11/22 05:45:44;;;;;;;13.60;2.78;;;5.60;99.90;;;;;;4960869;28;20502;-61
2022/11/22 05:48:10;;;;;;;13.77;2.72;;;5.70;99.90;;;;;;4953991;28;20036;-61
2022/11/22 05:50:35;;;;;;;16.13;2.78;;;5.70;99.90;;;;;;4964523;28;20731;-61
2022/11/22 05:53:02;;;;;;;15.77;2.95;;;5.70;99.90;;;;;;4953392;28;20035;-61
2022/11/22 05:55:29;;;;;;;11.73;2.90;;;5.70;99.90;;;;;;4965966;28;20064;-61
2022/11/22 05:57:57;;;;;;;13.18;2.92;;;5.70;99.90;;;;;;4961975;28;20042;-61
2022/11/22 06:00:23;;;;;;;13.15;2.72;;;5.80;99.90;;;;;;4965033;28;20494;-61
2022/11/22 06:02:49;;;;;;;14.75;3.22;;;5.80;99.90;;;;;;4966808;28;20055;-61
2022/11/22 06:05:15;;;;;;;11.95;3.13;;;5.90;99.90;;;;;;4961567;28;20106;-61
2022/11/22 06:07:40;;;;;;;17.90;3.20;;;5.90;99.90;;;;;;4963588;28;20430;-61
2022/11/22 06:10:06;;;;;;;16.63;3.50;;;5.90;99.90;;;;;;4965126;28;20043;-61
2022/11/22 06:12:32;;;;;;;17.70;3.75;;;5.90;99.90;;;;;;4961879;28;20876;-61
2022/11/22 06:14:57;;;;;;;13.85;3.17;;;5.90;99.90;;;;;;4963513;28;20154;-61
2022/11/22 06:17:23;;;;;;;13.68;3.25;;;5.80;99.90;;;;;;4961388;28;20039;-61
2022/11/22 06:19:48;;;;;;;13.18;2.92;;;5.80;99.90;;;;;;4964488;28;20043;-60
2022/11/22 06:22:14;;;;;;;15.90;2.78;;;5.80;99.90;;;;;;4966460;28;20031;-62
2022/11/22 06:24:41;;;;;;;12.05;2.80;;;5.80;99.90;;;;;;4958769;28;20037;-61
2022/11/22 06:27:07;;;;;;;12.15;3.30;;;5.80;99.90;;;;;;4954878;28;20043;-61
2022/11/22 06:29:32;;;;;;;13.95;2.72;;;5.90;99.90;;;;;;4958750;28;20093;-61
2022/11/22 06:31:58;;;;;;;13.88;3.15;;;6.00;99.90;;;;;;4965847;28;20031;-61
2022/11/22 06:34:24;;;;;;;15.93;2.75;;;6.00;99.90;;;;;;4960220;28;20406;-61
2022/11/22 06:36:50;;;;;;;11.88;2.92;;;5.90;99.90;;;;;;4963240;28;20035;-62
2022/11/22 06:39:15;;;;;;;18.35;3.08;;;5.90;99.90;;;;;;4955220;28;20134;-61
2022/11/22 06:41:41;;;;;;;12.75;2.63;;;6.00;99.90;;;;;;4961945;28;20101;-60
2022/11/22 06:44:08;;;;;;;14.23;2.85;;;6.10;99.90;;;;;;4956215;28;20039;-61
2022/11/22 06:46:34;;;;;;;14.57;3.83;;;6.10;99.90;;;;;;4968215;28;20030;-60
2022/11/22 06:49:00;;;;;;;13.07;3.25;;;6.10;99.90;;;;;;4955821;28;20509;-60
2022/11/22 06:51:30;;;;;;;13.25;3.05;;;6.00;99.90;;;;;;4958259;28;20038;-61
2022/11/22 06:53:56;;;;;;;17.73;3.08;;;6.00;99.90;;;;;;4962820;28;20039;-60
2022/11/22 06:56:39;;;;;;;14.55;2.88;;;6.00;99.90;;;;;;4955391;28;20544;-60
2022/11/22 06:59:06;;;;;;;9.43;2.40;;;6.00;99.90;;;;;;4960408;28;20045;-60
2022/11/22 07:01:33;;;;;;;11.65;2.70;;;6.00;99.90;;;;;;4961985;28;20431;-60
2022/11/22 07:03:59;;;;;;;15.25;2.58;;;5.90;99.90;;;;;;4959999;28;20463;-61
2022/11/22 07:06:33;;;;;;;13.25;3.33;;;5.90;99.90;;;;;;4958194;28;20062;-60
2022/11/22 07:09:00;;;;;;;14.15;3.05;;;5.80;99.90;;;;;;4955381;28;20502;-61
2022/11/22 07:11:29;;;;;;;15.35;2.92;;;5.90;99.90;;;;;;4959148;28;20410;-60
2022/11/22 07:13:56;;;;;;;12.98;2.88;;;5.80;99.90;;;;;;4958641;28;20186;-61
2022/11/22 07:16:22;;;;;;;15.45;3.28;;;5.80;99.90;;;;;;4953929;28;20051;-60
2022/11/22 07:18:48;;;;;;;15.63;3.35;;;5.80;99.90;;;;;;4953384;28;20402;-61
2022/11/22 07:21:16;;;;;;;12.00;3.10;;;5.90;99.90;;;;;;4960271;28;20035;-61
2022/11/22 07:23:43;;;;;;;18.35;3.25;;;5.90;99.90;;;;;;4958834;28;20126;-60
2022/11/22 07:26:10;;;;;;;14.93;3.40;;;5.90;99.90;;;;;;4959157;28;20035;-60
2022/11/22 07:28:36;;;;;;;21.02;3.15;;;5.90;99.90;;;;;;4962426;28;20659;-60
2022/11/22 07:31:04;;;;;;;14.30;2.80;;;5.80;99.90;;;;;;4953911;28;20161;-61
2022/11/22 07:33:30;;;;;;;15.95;3.28;;;5.80;99.90;;;;;;4957989;28;20711;-61
2022/11/22 07:36:01;;;;;;;13.93;3.25;;;5.90;99.90;;;;;;4957912;28;20503;-61
2022/11/22 07:38:27;;;;;;;8.93;2.72;;;5.90;99.90;;;;;;4962891;28;20034;-60
2022/11/22 07:40:52;;;;;;;13.77;2.88;;;5.90;99.90;;;;;;4953938;28;20114;-60
2022/11/22 07:43:18;;;;;;;34.67;18.50;;;5.90;99.90;;;;;;4959302;28;20031;-61
2022/11/22 07:45:44;;;;;;;12.30;3.28;;;6.00;99.90;;;;;;4956233;28;20035;-61
2022/11/22 07:48:13;;;;;;;20.27;4.13;;;6.00;99.90;;;;;;4955936;28;20032;-61
2022/11/22 07:50:40;;;;;;;19.50;3.33;;;6.00;99.90;;;;;;4954857;28;20398;-60
2022/11/22 07:53:05;;;;;;;11.65;3.40;;;6.00;99.90;;;;;;4969866;28;20279;-60
2022/11/22 07:55:31;;;;;;;15.55;3.25;;;6.00;99.90;;;;;;4963196;28;20122;-60
2022/11/22 07:57:59;;;;;;;16.83;2.75;;;6.10;99.90;;;;;;4957880;28;20023;-60
2022/11/22 08:00:26;;;;;;;9.57;2.70;;;6.00;99.90;;;;;;4958276;28;20109;-60
2022/11/22 08:02:52;;;;;;;12.40;3.20;;;5.90;99.90;;;;;;4961116;28;20097;-59
2022/11/22 08:05:17;;;;;;;23.70;4.15;;;6.00;99.90;;;;;;4963051;28;20027;-61
2022/11/22 08:07:48;;;;;;;14.48;3.90;;;6.00;99.90;;;;;;4962343;28;20126;-60
2022/11/22 08:10:14;;;;;;;15.57;3.42;;;6.00;99.90;;;;;;4960034;28;20039;-61
2022/11/22 08:12:39;;;;;;;13.70;3.65;;;6.00;99.90;;;;;;4963957;28;20450;-60
2022/11/22 08:15:06;;;;;;;13.55;3.13;;;6.00;99.90;;;;;;4962977;28;20038;-61
2022/11/22 08:17:32;;;;;;;17.90;3.22;;;6.10;99.90;;;;;;4957114;28;20031;-60
2022/11/22 08:19:57;;;;;;;13.98;3.67;;;6.20;99.90;;;;;;4962714;28;20429;-60
2022/11/22 08:22:23;;;;;;;13.70;3.38;;;6.20;99.90;;;;;;4961236;28;20050;-60
2022/11/22 08:24:48;;;;;;;16.75;4.18;;;6.20;99.90;;;;;;4949441;28;20042;-60
2022/11/22 08:27:14;;;;;;;14.93;3.00;;;6.30;99.90;;;;;;4923456;28;1091007;-60
2022/11/22 08:29:40;;;;;;;11.98;2.97;;;6.20;99.90;;;;;;4959375;28;20046;-60
2022/11/22 08:32:05;;;;;;;12.52;2.97;;;6.30;99.90;;;;;;4958584;28;20394;-60
2022/11/22 08:34:31;;;;;;;20.42;3.38;;;6.40;99.90;;;;;;4960550;28;20101;-61
2022/11/22 08:36:56;;;;;;;20.50;2.97;;;6.20;99.90;;;;;;4961341;28;20517;-61
2022/11/22 08:39:22;;;;;;;12.93;3.03;;;6.30;99.90;;;;;;4960670;28;20034;-60
2022/11/22 08:41:47;;;;;;;15.55;3.20;;;6.20;99.90;;;;;;4959061;28;20039;-61
2022/11/22 08:44:13;;;;;;;12.68;3.17;;;6.30;99.90;;;;;;4963980;28;20031;-66
2022/11/22 08:46:39;;;;;;;13.95;3.42;;;6.30;99.90;;;;;;4961080;28;20035;-61
2022/11/22 08:49:05;;;;;;;10.65;3.25;;;6.40;99.90;;;;;;4961084;28;20047;-60
2022/11/22 08:51:32;;;;;;;17.10;5.68;;;6.40;99.90;;;;;;4954208;28;20505;-60
2022/11/22 08:53:58;;;;;;;17.15;4.60;;;6.40;99.90;;;;;;4967138;28;20084;-61
2022/11/22 08:56:23;;;;;;;15.48;3.35;;;6.50;99.90;;;;;;4964239;28;20047;-61
2022/11/22 08:58:49;;;;;;;11.50;3.35;;;6.60;99.90;;;;;;4962030;28;20046;-60
2022/11/22 09:01:16;;;;;;;16.55;3.10;;;6.70;99.90;;;;;;4961312;28;20430;-60
2022/11/22 09:03:43;;;;;;;11.13;3.47;;;6.80;99.90;;;;;;4961656;28;20422;-60
2022/11/22 09:06:14;;;;;;;14.25;3.40;;;6.90;99.90;;;;;;4960014;28;20126;-61
2022/11/22 09:08:40;;;;;;;11.43;2.60;;;6.90;99.90;;;;;;4959010;28;20548;-60
2022/11/22 09:11:08;;;;;;;11.15;2.45;;;7.00;99.90;;;;;;4959931;28;20038;-60
2022/11/22 09:13:34;;;;;;;13.80;2.35;;;7.10;99.90;;;;;;4960644;28;20031;-60
2022/11/22 09:16:11;;;;;;;13.13;2.45;;;7.20;99.90;;;;;;4956344;28;20093;-61
2022/11/22 09:18:37;;;;;;;13.45;2.05;;;7.30;99.90;;;;;;4964427;28;20063;-60
2022/11/22 09:21:05;;;;;;;12.68;2.63;;;7.30;99.90;;;;;;4964301;28;20053;-60
2022/11/22 09:23:31;;;;;;;13.10;2.72;;;7.30;99.90;;;;;;4968017;28;20042;-60
2022/11/22 09:25:59;;;;;;;13.13;5.18;;;7.40;99.90;;;;;;4959521;28;20122;-62
2022/11/22 09:28:26;;;;;;;12.88;3.50;;;7.50;99.90;;;;;;4959582;28;20030;-61
2022/11/22 09:30:58;;;;;;;12.02;2.60;;;7.50;99.90;;;;;;4965691;28;20051;-60
2022/11/22 09:33:24;;;;;;;9.00;2.33;;;7.60;99.90;;;;;;4963323;28;20503;-61
2022/11/22 09:35:50;;;;;;;8.00;2.00;;;7.60;99.90;;;;;;4967003;28;20043;-61
2022/11/22 09:38:15;;;;;;;10.32;2.20;;;7.60;99.90;;;;;;4963773;28;20406;-60
2022/11/22 09:40:45;;;;;;;10.80;2.33;;;7.70;99.90;;;;;;4960137;28;20154;-61
2022/11/22 09:43:37;;;;;;;10.73;1.90;;;7.70;99.90;;;;;;4961836;28;20486;-61
2022/11/22 09:46:42;;;;;;;9.45;1.80;;;7.70;99.90;;;;;;4960143;28;20395;-60
2022/11/22 09:49:27;;;;;;;66.47;41.03;;;7.70;99.90;;;;;;4969471;28;20114;-61
2022/11/22 09:52:06;;;;;;;9.07;2.47;;;7.80;99.90;;;;;;4963016;28;20027;-61
2022/11/22 09:54:56;;;;;;;10.30;2.08;;;7.80;99.90;;;;;;4965120;28;20034;-60
2022/11/22 09:57:29;;;;;;;8.65;1.85;;;7.70;99.90;;;;;;4956466;28;20039;-59
2022/11/22 10:00:05;;;;;;;;;;;7.70;99.90;;;;;;4957038;28;20027;-60
2022/11/22 10:02:41;;;;;;;8.80;1.83;;;7.70;99.90;;;;;;4959701;28;19914;-60
2022/11/22 10:05:20;;;;;;;14.55;2.35;;;7.80;99.90;;;;;;4962116;28;20112;-60
2022/11/22 10:07:52;;;;;;;8.05;1.80;;;7.90;99.90;;;;;;4965021;28;20085;-61
2022/11/22 10:10:30;;;;;;;9.30;1.85;;;8.00;99.90;;;;;;4960388;28;20054;-60
2022/11/22 10:13:13;;;;;;;11.25;2.22;;;8.00;99.90;;;;;;4959558;28;20054;-60
2022/11/22 10:16:13;;;;;;;8.68;2.25;;;8.10;99.90;;;;;;4951663;28;20046;-60
2022/11/22 10:18:54;;;;;;;10.07;1.90;;;8.10;99.90;;;;;;4963207;28;20038;-60
2022/11/22 10:21:20;;;;;;;7.95;1.80;;;8.20;99.90;;;;;;4955736;28;20483;-61
2022/11/22 10:23:46;;;;;;;5.28;1.75;;;8.30;99.90;;;;;;4955684;28;20041;-61
2022/11/22 10:26:26;;;;;;;7.75;1.80;;;8.40;99.90;;;;;;4963074;28;20041;-62
2022/11/22 10:29:03;;;;;;;7.22;1.60;;;8.60;99.90;;;;;;4962432;28;20031;-61
2022/11/22 10:31:32;;;;;;;7.85;1.63;;;8.60;99.90;;;;;;4962695;28;20390;-61
2022/11/22 10:34:22;;;;;;;8.73;2.08;;;8.70;99.90;;;;;;4962664;28;20481;-61
2022/11/22 10:37:01;;;;;;;6.63;1.70;;;8.70;99.90;;;;;;4960395;28;20438;-62
2022/11/22 10:39:49;;;;;;;7.63;1.50;;;8.60;99.90;;;;;;4965455;28;20082;-62
2022/11/22 10:42:20;;;;;;;7.72;1.60;;;8.60;99.90;;;;;;4949604;28;20245;-61
2022/11/22 10:45:14;;;;;;;10.02;2.10;;;8.30;99.90;;;;;;4961485;28;20109;-61
2022/11/22 10:47:39;;;;;;;4.70;1.42;;;8.30;99.90;;;;;;4955042;28;20084;-62
2022/11/22 10:50:13;;;;;;;9.15;1.73;;;8.30;99.90;;;;;;4965700;28;20043;-62
2022/11/22 10:52:53;;;;;;;7.53;1.95;;;8.20;99.90;;;;;;4959382;28;20038;-62
2022/11/22 10:55:33;;;;;;;10.30;2.15;;;8.30;99.90;;;;;;4962015;28;20041;-62
2022/11/22 10:58:12;;;;;;;5.45;1.58;;;8.20;99.90;;;;;;4955270;28;20158;-62
2022/11/22 11:00:42;;;;;;;5.18;1.38;;;8.20;99.90;;;;;;4958790;28;20055;-62
2022/11/22 11:03:34;;;;;;;5.35;1.27;;;8.20;99.90;;;;;;4960281;28;20087;-62
2022/11/22 11:06:22;;;;;;;6.35;1.30;;;8.20;99.90;;;;;;4959683;28;20490;-62
2022/11/22 11:08:57;;;;;;;5.75;1.50;;;8.30;99.90;;;;;;4966555;28;20042;-62
2022/11/22 11:11:25;;;;;;;7.45;1.52;;;8.30;99.90;;;;;;4963182;28;20066;-62
2022/11/22 11:13:57;;;;;;;5.80;1.27;;;8.30;99.90;;;;;;4957528;28;20046;-62
2022/11/22 11:16:27;;;;;;;5.13;1.40;;;8.40;99.90;;;;;;4956974;28;20046;-62
2022/11/22 11:18:57;;;;;;;6.50;1.40;;;8.40;99.90;;;;;;4965366;28;20038;-62
2022/11/22 11:21:25;;;;;;;6.78;1.55;;;8.40;99.90;;;;;;4963167;28;20508;-62
2022/11/22 11:23:50;;;;;;;5.65;1.55;;;8.50;99.90;;;;;;4962019;28;20572;-62
2022/11/22 11:26:27;;;;;;;6.65;1.33;;;8.50;99.90;;;;;;4961570;28;20039;-62
2022/11/22 11:29:14;;;;;;;6.55;1.65;;;8.50;99.90;;;;;;4957481;28;20071;-62
2022/11/22 11:32:15;;;;;;;6.07;1.50;;;8.40;99.90;;;;;;4955301;28;20049;-61
2022/11/22 11:34:49;;;;;;;6.00;1.35;;;8.40;99.90;;;;;;4970257;28;20117;-62
2022/11/22 11:37:39;;;;;;;4.70;1.35;;;8.50;99.90;;;;;;4965949;28;20399;-62
2022/11/22 11:40:31;;;;;;;4.03;1.40;;;8.60;99.90;;;;;;4962832;28;20599;-62
2022/11/22 11:43:19;;;;;;;4.30;1.33;;;8.70;99.90;;;;;;4957664;28;20042;-62
2022/11/22 11:45:45;;;;;;;5.47;1.67;;;8.80;99.90;;;;;;4957149;28;20046;-62
2022/11/22 11:48:28;;;;;;;6.32;1.33;;;8.90;99.90;;;;;;4960819;28;20414;-62
2022/11/22 11:51:12;;;;;;;5.00;1.42;;;8.90;99.90;;;;;;4980828;28;20105;-62
2022/11/22 11:53:40;;;;;;;4.22;1.60;;;8.90;99.90;;;;;;4965785;28;20541;-62
2022/11/22 11:56:43;;;;;;;3.35;0.90;;;9.00;99.90;;;;;;4959235;28;20387;-62
2022/11/22 11:59:29;;;;;;;2.47;0.73;;;8.90;99.90;;;;;;4962710;28;20039;-62
2022/11/22 12:02:09;;;;;;;3.50;1.10;;;9.00;99.90;;;;;;4959763;28;20655;-62
2022/11/22 12:04:47;;;;;;;4.05;1.10;;;9.10;99.90;;;;;;4951190;28;20039;-62
2022/11/22 12:07:24;;;;;;;3.20;1.00;;;9.00;99.90;;;;;;4955205;28;20605;-62
2022/11/22 12:09:52;;;;;;;3.40;0.90;;;9.00;99.90;;;;;;4958577;28;20071;-62
2022/11/22 12:12:44;;;;;;;3.00;0.98;;;9.10;99.90;;;;;;4955866;28;20042;-62
2022/11/22 12:15:35;;;;;;;4.13;1.00;;;9.00;99.90;;;;;;4957126;28;20470;-62
2022/11/22 12:18:26;;;;;;;3.33;1.10;;;9.00;99.90;;;;;;4959886;28;20039;-62
2022/11/22 12:21:16;;;;;;;4.15;1.02;;;9.00;99.90;;;;;;4950371;28;20058;-62
2022/11/22 12:23:59;;;;;;;3.38;0.98;;;9.10;99.90;;;;;;4961056;28;20476;-63
2022/11/22 12:26:26;;;;;;;4.05;0.90;;;9.10;99.90;;;;;;4952552;28;20043;-62
2022/11/22 12:28:53;;;;;;;4.55;0.98;;;9.20;99.90;;;;;;4963622;28;20062;-62
2022/11/22 12:31:33;;;;;;;5.15;1.20;;;9.20;99.90;;;;;;4960165;28;20525;-62
2022/11/22 12:34:06;;;;;;;3.13;1.10;;;9.20;99.90;;;;;;4965809;28;20065;-62
2022/11/22 12:36:57;;;;;;;3.92;1.05;;;9.20;99.90;;;;;;4952401;28;20395;-62
2022/11/22 12:39:27;;;;;;;5.20;0.90;;;9.30;99.90;;;;;;4958139;28;20023;-62
2022/11/22 12:42:07;;;;;;;3.25;1.00;;;9.30;99.90;;;;;;4962786;28;20134;-62
2022/11/22 12:44:38;;;;;;;3.78;1.00;;;9.30;99.90;;;;;;4963842;28;20612;-62
2022/11/22 12:47:20;;;;;;;2.50;1.10;;;9.20;99.90;;;;;;4958057;28;20062;-62
2022/11/22 12:49:51;;;;;;;4.07;1.52;;;9.10;99.90;;;;;;4953855;28;20122;-62
2022/11/22 12:52:48;;;;;;;5.18;1.90;;;9.20;99.90;;;;;;4957370;28;20066;-62
2022/11/22 12:55:42;;;;;;;4.63;1.73;;;9.20;99.90;;;;;;4958606;28;20066;-62
2022/11/22 12:58:10;;;;;;;4.03;1.38;;;9.30;99.90;;;;;;4964990;28;20606;-63
2022/11/22 13:00:46;;;;;;;1.70;0.85;;;9.30;99.90;;;;;;4957106;28;20491;-62
2022/11/22 13:03:18;;;;;;;3.05;0.80;;;9.20;99.90;;;;;;4963261;28;20042;-62
2022/11/22 13:05:52;;;;;;;2.85;1.10;;;9.20;99.90;;;;;;4960694;28;20506;-62
2022/11/22 13:08:50;;;;;;;3.83;1.17;;;9.20;99.90;;;;;;4959257;28;20413;-62
2022/11/22 13:11:24;;;;;;;2.45;1.00;;;9.20;99.90;;;;;;4950763;28;20035;-62
2022/11/22 13:13:58;;;;;;;3.22;1.25;;;9.10;99.90;;;;;;4957354;28;20493;-62
2022/11/22 13:16:23;;;;;;;1.20;0.80;;;9.10;99.90;;;;;;4957498;28;20046;-62
2022/11/22 13:19:02;;;;;;;2.55;1.35;;;9.20;99.90;;;;;;4969242;28;20039;-63
2022/11/22 13:22:05;;;;;;;4.03;1.50;;;9.10;99.90;;;;;;4963219;28;20378;-62
2022/11/22 13:24:52;;;;;;;3.28;1.40;;;9.20;99.90;;;;;;4956999;28;20036;-62
2022/11/22 13:27:26;;;;;;;5.93;1.30;;;9.30;99.90;;;;;;4963495;28;20130;-62